Time;durP1;ratioP1;P1;durP2;ratioP2;P2;SDS_P1;SDS_P2;PMS_P1;PMS_P2;Temp;Humidity;BMP_temperature;BMP_pressure;BME280_temperature;BME280_humidity;BME280_pressure;Samples;Min_cycle;Max_cycle;Signal;HPM_P1;HPM_P2
2022/12/20 00:01:22;;;;;;;7.07;3.53;;;;;;;8.79;100.00;101388.38;4995301;28;20133;-77
2022/12/20 00:03:52;;;;;;;6.93;3.40;;;;;;;8.81;100.00;101393.53;4992793;28;20021;-77
2022/12/20 00:06:19;;;;;;;6.43;3.30;;;;;;;8.85;100.00;101402.97;4985324;28;20183;-77
2022/12/20 00:08:44;;;;;;;7.30;3.40;;;;;;;8.89;100.00;101402.06;4986860;28;20037;-77
2022/12/20 00:11:10;;;;;;;6.00;3.53;;;;;;;8.90;100.00;101402.06;4995145;28;20030;-77
2022/12/20 00:13:36;;;;;;;7.82;3.60;;;;;;;8.92;100.00;101402.94;4992159;28;20115;-77
2022/12/20 00:16:15;;;;;;;5.07;3.28;;;;;;;8.94;100.00;101406.34;4995132;28;20390;-77
2022/12/20 00:18:41;;;;;;;6.30;3.50;;;;;;;8.98;100.00;101405.47;4994193;28;20034;-73
2022/12/20 00:21:09;;;;;;;5.47;3.58;;;;;;;9.01;100.00;101400.25;4996143;28;20044;-73
2022/12/20 00:23:36;;;;;;;5.15;3.22;;;;;;;9.07;100.00;101394.19;4982030;28;20397;-73
2022/12/20 00:26:11;;;;;;;5.05;3.33;;;;;;;9.12;100.00;101387.25;4995347;28;20492;-73
2022/12/20 00:28:37;;;;;;;6.30;3.20;;;;;;;9.17;100.00;101379.44;4993562;28;20044;-73
2022/12/20 00:31:04;;;;;;;5.40;3.40;;;;;;;9.20;100.00;101377.69;4993517;28;20108;-73
2022/12/20 00:33:30;;;;;;;6.53;3.30;;;;;;;9.24;100.00;101383.66;4994242;28;20030;-73
2022/12/20 00:35:56;;;;;;;5.38;3.10;;;;;;;9.29;100.00;101379.31;4995350;28;20033;-73
2022/12/20 00:38:23;;;;;;;5.78;3.20;;;;;;;9.34;100.00;101377.56;4989579;28;20106;-73
2022/12/20 00:41:08;;;;;;;7.38;3.47;;;;;;;9.40;100.00;101380.06;4994325;28;20034;-73
2022/12/20 00:43:35;;;;;;;5.50;3.30;;;;;;;9.41;100.00;101372.31;4994676;28;20033;-73
2022/12/20 00:46:01;;;;;;;7.65;3.70;;;;;;;9.44;100.00;101372.25;4994800;28;20104;-73
2022/12/20 00:48:28;;;;;;;7.38;3.58;;;;;;;9.45;100.00;101361.03;4991059;28;20035;-73
2022/12/20 00:51:03;;;;;;;6.45;3.10;;;;;;;9.49;100.00;101364.44;4986577;28;20032;-74
2022/12/20 00:53:29;;;;;;;7.47;3.10;;;;;;;9.50;100.00;101354.06;4994659;28;20030;-72
2022/12/20 00:55:55;;;;;;;6.82;3.58;;;;;;;9.54;100.00;101347.16;4994293;28;20226;-73
2022/12/20 00:58:20;;;;;;;6.38;3.50;;;;;;;9.56;100.00;101350.56;4994809;28;20083;-73
2022/12/20 01:00:46;;;;;;;5.40;3.03;;;;;;;9.59;100.00;101358.28;4994132;28;20509;-73
2022/12/20 01:03:11;;;;;;;5.80;3.30;;;;;;;9.63;100.00;101366.88;4995092;28;20370;-73
2022/12/20 01:05:36;;;;;;;8.73;3.33;;;;;;;9.68;100.00;101359.94;4994788;28;20572;-73
2022/12/20 01:08:03;;;;;;;5.13;3.40;;;;;;;9.72;100.00;101369.34;4990497;28;20034;-73
2022/12/20 01:10:28;;;;;;;6.03;3.10;;;;;;;9.74;100.00;101367.63;4993745;28;20045;-73
2022/12/20 01:12:54;;;;;;;4.47;3.10;;;;;;;9.79;100.00;101368.41;4994031;28;20444;-73
2022/12/20 01:15:20;;;;;;;4.97;3.17;;;;;;;9.81;100.00;101372.72;4994662;28;20045;-73
2022/12/20 01:17:46;;;;;;;5.57;3.20;;;;;;;9.81;100.00;101369.25;4993124;28;20033;-72
2022/12/20 01:20:11;;;;;;;6.13;3.45;;;;;;;9.81;100.00;101377.03;4986908;28;20033;-76
2022/12/20 01:22:37;;;;;;;4.32;3.08;;;;;;;9.80;100.00;101378.75;4981136;28;20036;-76
2022/12/20 01:25:02;;;;;;;6.47;3.30;;;;;;;9.75;100.00;101385.72;4993575;28;20060;-76
2022/12/20 01:27:28;;;;;;;8.68;3.45;;;;;;;9.69;100.00;101380.59;4993213;28;20037;-77
2022/12/20 01:29:54;;;;;;;6.30;3.42;;;;;;;9.65;100.00;101385.84;4993939;28;20046;-77
2022/12/20 01:32:19;;;;;;;6.47;3.47;;;;;;;9.62;100.00;101370.34;4991964;28;20050;-77
2022/12/20 01:34:44;;;;;;;6.85;3.83;;;;;;;9.58;100.00;101358.31;4994378;28;20030;-77
2022/12/20 01:37:10;;;;;;;6.47;3.35;;;;;;;9.53;100.00;101366.13;4989008;28;20030;-77
2022/12/20 01:39:35;;;;;;;6.32;3.80;;;;;;;9.41;100.00;101380.06;4990603;28;20178;-77
2022/12/20 01:42:00;;;;;;;7.65;3.72;;;;;;;9.32;100.00;101374.97;4993435;28;20464;-78
2022/12/20 01:44:26;;;;;;;7.80;3.70;;;;;;;9.28;100.00;101381.03;4993112;28;20026;-78
2022/12/20 01:46:52;;;;;;;7.67;4.00;;;;;;;9.24;100.00;101374.19;4975917;28;20238;-78
2022/12/20 01:49:33;;;;;;;9.13;3.60;;;;;;;9.17;100.00;101375.13;4993524;28;20277;-71
2022/12/20 01:52:04;;;;;;;9.07;4.22;;;;;;;9.13;100.00;101357.94;4982639;28;20437;-71
2022/12/20 01:54:34;;;;;;;11.48;4.25;;;;;;;9.10;100.00;101355.34;4991051;28;20022;-71
2022/12/20 01:57:05;;;;;;;8.57;4.13;;;;;;;9.04;100.00;101358.84;4992051;28;20034;-71
2022/12/20 01:59:34;;;;;;;10.27;4.50;;;;;;;8.99;100.00;101358.06;4993792;28;20396;-71
2022/12/20 02:02:03;;;;;;;7.47;3.85;;;;;;;8.99;100.00;101357.19;4993422;28;20163;-71
2022/12/20 02:04:29;;;;;;;7.15;4.07;;;;;;;8.98;100.00;101339.97;4993650;28;20050;-71
2022/12/20 02:06:55;;;;;;;8.25;4.18;;;;;;;8.96;100.00;101332.22;4982878;28;20057;-71
2022/12/20 02:09:20;;;;;;;8.45;4.43;;;;;;;8.96;100.00;101329.63;4992328;28;20011;-71
2022/12/20 02:11:58;;;;;;;8.23;4.40;;;;;;;8.96;100.00;101321.88;4975107;28;20030;-71
2022/12/20 02:14:48;;;;;;;6.22;3.97;;;;;;;8.96;100.00;101316.69;4993336;28;20026;-71
2022/12/20 02:17:31;;;;;;;9.93;4.25;;;;;;;8.99;100.00;101323.56;4991050;28;20022;-71
2022/12/20 02:20:10;;;;;;;7.45;4.60;;;;;;;9.00;100.00;101318.41;4974188;28;20027;-71
2022/12/20 02:23:10;;;;;;;8.27;4.20;;;;;;;9.00;100.00;101307.19;4992852;28;20037;-71
2022/12/20 02:25:41;;;;;;;7.28;3.97;;;;;;;9.00;100.00;101304.63;4988572;28;20117;-71
2022/12/20 02:28:35;;;;;;;9.23;4.30;;;;;;;9.00;100.00;101302.88;4975046;28;20038;-71
2022/12/20 02:31:08;;;;;;;8.85;4.40;;;;;;;8.98;100.00;101294.28;4993362;28;20065;-71
2022/12/20 02:33:33;;;;;;;6.10;3.85;;;;;;;8.98;100.00;101285.66;4988434;28;20030;-71
2022/12/20 02:35:59;;;;;;;7.95;3.80;;;;;;;8.98;100.00;101298.59;4992393;28;20037;-71
2022/12/20 02:38:33;;;;;;;7.43;4.50;;;;;;;8.96;100.00;101289.97;4993387;28;20026;-71
2022/12/20 02:41:20;;;;;;;10.35;4.15;;;;;;;8.96;100.00;101283.09;4986176;28;20035;-72
2022/12/20 02:46:37;;;;;;;9.60;4.68;;;;;;;8.90;100.00;101279.72;4989347;28;20037;-71
2022/12/20 02:49:10;;;;;;;7.78;3.72;;;;;;;8.84;100.00;101278.03;4996848;28;20547;-71
2022/12/20 02:51:36;;;;;;;5.70;3.78;;;;;;;8.81;100.00;101270.31;4995940;28;20030;-71
2022/12/20 02:54:03;;;;;;;6.30;3.85;;;;;;;8.82;100.00;101273.75;4979324;28;20023;-72
2022/12/20 02:56:36;;;;;;;8.57;3.70;;;;;;;8.82;100.00;101277.19;4996348;28;20113;-72
2022/12/20 02:59:15;;;;;;;7.30;3.67;;;;;;;8.83;100.00;101265.13;4996034;28;20041;-79
2022/12/20 03:01:47;;;;;;;5.25;3.60;;;;;;;8.83;100.00;101267.72;4995881;28;20499;-79
2022/12/20 03:04:14;;;;;;;9.00;4.32;;;;;;;8.82;100.00;101266.00;4988105;28;20046;-79
2022/12/20 03:06:57;;;;;;;5.03;3.60;;;;;;;8.83;100.00;101268.56;4989731;28;20113;-79
2022/12/20 03:09:22;;;;;;;6.80;4.07;;;;;;;8.84;100.00;101264.25;4996505;28;20109;-79
2022/12/20 03:11:47;;;;;;;5.60;3.53;;;;;;;8.86;100.00;101267.69;4995022;28;20048;-79
2022/12/20 03:14:13;;;;;;;6.15;3.63;;;;;;;8.85;100.00;101265.97;4995672;28;20037;-79
2022/12/20 03:16:38;;;;;;;7.60;3.88;;;;;;;8.84;100.00;101265.13;4989675;28;20077;-79
2022/12/20 03:19:04;;;;;;;7.35;3.90;;;;;;;8.85;100.00;101268.56;4996379;28;20061;-80
2022/12/20 03:21:29;;;;;;;6.13;3.50;;;;;;;8.85;100.00;101271.16;4993623;28;20096;-79
2022/12/20 03:23:54;;;;;;;7.43;3.58;;;;;;;8.88;100.00;101264.19;4996639;28;20085;-79
2022/12/20 03:26:20;;;;;;;6.63;3.60;;;;;;;8.91;100.00;101269.34;4994101;28;20029;-79
2022/12/20 03:28:45;;;;;;;5.80;3.75;;;;;;;8.96;100.00;101269.31;4983059;28;20034;-72
2022/12/20 03:31:10;;;;;;;6.82;3.50;;;;;;;9.01;100.00;101259.75;4992763;28;20034;-72
2022/12/20 03:33:36;;;;;;;7.82;3.60;;;;;;;9.04;100.00;101264.91;4995066;28;20022;-72
2022/12/20 03:36:01;;;;;;;5.80;3.55;;;;;;;9.06;100.00;101264.03;4996110;28;20026;-72
2022/12/20 03:38:26;;;;;;;9.30;3.72;;;;;;;9.09;100.00;101252.78;4995893;28;20085;-72
2022/12/20 03:40:52;;;;;;;5.93;3.40;;;;;;;9.12;100.00;101252.75;4995432;28;20369;-72
2022/12/20 03:43:17;;;;;;;8.13;3.40;;;;;;;9.16;100.00;101258.75;4995163;28;20088;-72
2022/12/20 03:45:42;;;;;;;8.55;3.80;;;;;;;9.17;100.00;101257.88;4996023;28;20428;-72
2022/12/20 03:48:08;;;;;;;6.68;3.45;;;;;;;9.18;100.00;101255.28;4994904;28;20055;-72
2022/12/20 03:50:35;;;;;;;7.47;3.42;;;;;;;9.23;100.00;101279.34;4996162;28;20113;-72
2022/12/20 03:53:01;;;;;;;7.22;3.42;;;;;;;9.27;100.00;101283.63;4994744;28;20049;-72
2022/12/20 03:55:26;;;;;;;6.32;3.58;;;;;;;9.31;100.00;101289.63;4995794;28;20062;-72
2022/12/20 03:57:51;;;;;;;6.00;3.38;;;;;;;9.35;100.00;101289.56;4995790;28;20146;-72
2022/12/20 04:00:17;;;;;;;7.32;3.50;;;;;;;9.40;100.00;101274.00;4986957;28;20082;-72
2022/12/20 04:02:42;;;;;;;10.35;3.63;;;;;;;9.45;100.00;101257.53;4990660;28;20026;-72
2022/12/20 04:05:08;;;;;;;5.57;3.25;;;;;;;9.49;100.00;101254.03;4996205;28;20050;-72
2022/12/20 04:07:33;;;;;;;8.32;3.15;;;;;;;9.55;100.00;101260.03;4995765;28;20027;-72
2022/12/20 04:09:58;;;;;;;6.35;3.30;;;;;;;9.58;100.00;101249.59;4994420;28;20388;-72
2022/12/20 04:12:24;;;;;;;6.28;3.47;;;;;;;9.62;100.00;101249.53;4995192;28;20030;-72
2022/12/20 04:14:49;;;;;;;5.68;3.28;;;;;;;9.65;100.00;101252.09;4996215;28;20030;-72
2022/12/20 04:17:14;;;;;;;5.88;3.10;;;;;;;9.69;100.00;101250.34;4983494;28;20465;-72
2022/12/20 04:19:40;;;;;;;6.55;3.70;;;;;;;9.73;100.00;101252.84;4995586;28;20537;-72
2022/12/20 04:22:05;;;;;;;5.82;3.33;;;;;;;9.76;100.00;101246.75;4995600;28;20034;-72
2022/12/20 04:24:30;;;;;;;5.30;3.40;;;;;;;9.79;100.00;101252.78;4994923;28;20026;-72
2022/12/20 04:26:56;;;;;;;5.38;3.05;;;;;;;9.81;100.00;101251.03;4995339;28;20022;-72
2022/12/20 04:29:21;;;;;;;7.07;3.45;;;;;;;9.83;100.00;101246.66;4996031;28;20036;-78
2022/12/20 04:31:46;;;;;;;6.45;3.38;;;;;;;9.85;100.00;101239.72;4992774;28;20109;-78
2022/12/20 04:34:12;;;;;;;5.90;3.38;;;;;;;9.90;100.00;101242.25;4995231;28;20032;-78
2022/12/20 04:36:37;;;;;;;5.95;3.20;;;;;;;9.92;100.00;101245.69;4985468;28;20031;-78
2022/12/20 04:39:02;;;;;;;5.35;3.40;;;;;;;9.95;100.00;101244.78;4991055;28;20030;-79
2022/12/20 04:41:28;;;;;;;5.63;3.25;;;;;;;9.96;100.00;101247.38;4993901;28;20088;-77
2022/12/20 04:43:55;;;;;;;5.65;3.17;;;;;;;9.95;100.00;101237.88;4993285;28;20496;-77
2022/12/20 04:46:22;;;;;;;6.93;3.50;;;;;;;9.95;100.00;101235.28;4983217;28;20452;-78
2022/12/20 04:48:47;;;;;;;6.35;3.17;;;;;;;9.95;100.00;101232.69;4993251;28;20026;-78
2022/12/20 04:51:13;;;;;;;5.30;3.00;;;;;;;9.97;100.00;101243.88;4994646;28;20080;-78
2022/12/20 04:53:47;;;;;;;6.68;3.13;;;;;;;9.99;100.00;101242.13;4995487;28;20104;-78
2022/12/20 04:56:18;;;;;;;6.25;3.17;;;;;;;10.02;100.00;101251.59;4989193;28;20022;-77
2022/12/20 04:58:45;;;;;;;5.05;3.20;;;;;;;10.05;100.00;101239.44;4994913;28;20037;-71
2022/12/20 05:01:11;;;;;;;8.45;3.28;;;;;;;10.08;100.00;101235.97;4988934;28;20110;-71
2022/12/20 05:03:37;;;;;;;6.47;3.35;;;;;;;10.08;100.00;101231.63;4993641;28;20120;-72
2022/12/20 05:06:02;;;;;;;4.47;3.13;;;;;;;10.10;100.00;101229.03;4995021;28;20038;-71
2022/12/20 05:08:28;;;;;;;8.55;3.30;;;;;;;10.10;100.00;101223.84;4994977;28;20508;-71
2022/12/20 05:10:53;;;;;;;5.88;3.22;;;;;;;10.11;100.00;101228.13;4993861;28;20030;-72
2022/12/20 05:13:19;;;;;;;6.13;3.08;;;;;;;10.11;100.00;101220.34;4994748;28;20505;-72
2022/12/20 05:15:44;;;;;;;6.63;3.00;;;;;;;10.16;100.00;101215.97;4994734;28;20532;-72
2022/12/20 05:18:09;;;;;;;5.30;3.13;;;;;;;10.19;100.00;101210.75;4994078;28;20042;-72
2022/12/20 05:20:35;;;;;;;6.82;3.33;;;;;;;10.22;100.00;101208.13;4995098;28;20177;-72
2022/12/20 05:28:22;;;;;;;4.10;2.95;;;;;;;10.24;100.00;101193.41;4992819;28;20019;-72
2022/12/20 05:30:47;;;;;;;5.40;3.30;;;;;;;10.21;100.00;101194.31;4981280;28;20127;-72
2022/12/20 05:33:13;;;;;;;4.85;3.05;;;;;;;10.20;100.00;101191.75;4990085;28;20030;-72
2022/12/20 05:35:38;;;;;;;5.53;3.35;;;;;;;10.20;100.00;101197.78;4972318;28;20027;-72
2022/12/20 05:38:03;;;;;;;5.45;3.25;;;;;;;10.22;100.00;101197.78;4995091;28;20026;-72
2022/12/20 05:40:29;;;;;;;5.60;3.15;;;;;;;10.21;100.00;101196.06;4991701;28;20026;-72
2022/12/20 05:42:54;;;;;;;5.40;3.00;;;;;;;10.21;100.00;101194.31;4994075;28;20053;-72
2022/12/20 05:45:19;;;;;;;7.68;3.40;;;;;;;10.20;100.00;101187.44;4995025;28;20264;-72
2022/12/20 05:47:45;;;;;;;5.55;3.13;;;;;;;10.20;100.00;101190.03;4994393;28;20105;-72
2022/12/20 05:50:10;;;;;;;6.78;3.22;;;;;;;10.21;100.00;101186.56;4994026;28;20038;-72
2022/12/20 05:52:36;;;;;;;4.63;3.05;;;;;;;10.21;100.00;101183.97;4994483;28;20505;-72
2022/12/20 05:55:01;;;;;;;6.20;3.28;;;;;;;10.20;100.00;101182.25;4994297;28;20026;-72
2022/12/20 05:57:27;;;;;;;4.97;2.80;;;;;;;10.21;100.00;101181.38;4993976;28;20076;-72
2022/12/20 05:59:53;;;;;;;7.28;3.35;;;;;;;10.20;100.00;101171.03;4976215;28;20061;-72
2022/12/20 06:02:19;;;;;;;4.93;3.08;;;;;;;10.19;100.00;101169.31;4975194;28;20033;-72
2022/12/20 06:04:44;;;;;;;6.30;3.13;;;;;;;10.15;100.00;101168.50;4991229;28;20046;-72
2022/12/20 06:07:10;;;;;;;6.53;3.28;;;;;;;10.13;100.00;101162.47;4984675;28;20060;-72
2022/12/20 06:09:35;;;;;;;6.72;3.13;;;;;;;10.15;100.00;101158.13;4993353;28;20054;-76
2022/12/20 06:12:00;;;;;;;5.18;3.20;;;;;;;10.13;100.00;101159.03;4993529;28;20030;-76
2022/12/20 06:14:26;;;;;;;7.05;3.33;;;;;;;10.12;100.00;101149.53;4974795;28;20030;-76
2022/12/20 06:16:52;;;;;;;4.78;3.05;;;;;;;10.12;100.00;101139.19;4968701;28;20027;-76
2022/12/20 06:19:17;;;;;;;5.15;3.03;;;;;;;10.10;100.00;101139.19;4993149;28;20026;-76
2022/12/20 06:21:43;;;;;;;4.82;2.85;;;;;;;10.10;100.00;101141.78;4993031;28;20507;-76
2022/12/20 06:24:08;;;;;;;5.18;2.70;;;;;;;10.10;100.00;101136.59;4984369;28;20367;-76
2022/12/20 06:26:36;;;;;;;6.88;3.30;;;;;;;10.10;100.00;101135.78;4979183;28;20019;-76
2022/12/20 06:29:06;;;;;;;3.95;2.75;;;;;;;10.08;100.00;101135.81;4995590;28;20045;-77
2022/12/20 06:31:32;;;;;;;6.38;2.72;;;;;;;10.06;100.00;101137.56;4991574;28;20120;-76
2022/12/20 06:33:57;;;;;;;4.93;2.60;;;;;;;10.04;100.00;101141.03;4999102;28;20473;-76
2022/12/20 06:36:23;;;;;;;6.25;2.88;;;;;;;9.99;100.00;101154.06;4997250;28;20496;-77
2022/12/20 06:38:48;;;;;;;7.22;3.03;;;;;;;9.92;100.00;101149.88;4995061;28;20040;-76
2022/12/20 06:41:13;;;;;;;7.10;3.05;;;;;;;9.85;100.00;101141.34;4997162;28;20026;-76
2022/12/20 06:43:39;;;;;;;5.13;2.92;;;;;;;9.79;100.00;101144.03;5001203;28;20040;-76
2022/12/20 06:46:05;;;;;;;6.55;3.13;;;;;;;9.72;100.00;101142.41;4996846;28;20386;-76
2022/12/20 06:48:30;;;;;;;5.13;3.25;;;;;;;9.68;100.00;101143.34;4997040;28;20492;-77
2022/12/20 06:50:56;;;;;;;5.53;2.90;;;;;;;9.68;100.00;101142.50;4996238;28;20026;-77
2022/12/20 06:53:21;;;;;;;6.93;3.22;;;;;;;9.68;100.00;101139.91;4996954;28;20081;-76
2022/12/20 06:55:49;;;;;;;7.32;2.90;;;;;;;9.70;100.00;101144.16;4998955;28;20034;-77
2022/12/20 06:58:15;;;;;;;4.63;2.95;;;;;;;9.68;100.00;101134.75;4995306;28;20041;-76
2022/12/20 07:00:40;;;;;;;7.10;3.17;;;;;;;9.68;100.00;101147.69;4996225;28;20405;-76
2022/12/20 07:03:06;;;;;;;5.82;3.05;;;;;;;9.62;100.00;101142.59;4996789;28;20029;-76
2022/12/20 07:05:31;;;;;;;5.93;3.20;;;;;;;9.59;100.00;101143.50;4997147;28;20054;-76
2022/12/20 07:07:56;;;;;;;4.15;3.10;;;;;;;9.58;100.00;101133.16;4989586;28;20478;-76
2022/12/20 07:10:22;;;;;;;7.40;3.35;;;;;;;9.58;100.00;101146.09;4991242;28;20038;-73
2022/12/20 07:12:47;;;;;;;5.85;3.40;;;;;;;9.57;100.00;101145.22;4995985;28;20109;-72
2022/12/20 07:15:13;;;;;;;6.82;3.40;;;;;;;9.57;100.00;101146.97;4996112;28;20030;-73
2022/12/20 07:17:38;;;;;;;6.15;3.17;;;;;;;9.56;100.00;101140.06;4994859;28;20058;-72
2022/12/20 07:20:06;;;;;;;6.95;3.47;;;;;;;9.56;100.00;101134.91;4999067;28;20038;-72
2022/12/20 07:22:33;;;;;;;6.18;3.20;;;;;;;9.58;100.00;101143.50;4978879;28;20026;-72
2022/12/20 07:24:58;;;;;;;5.50;3.00;;;;;;;9.59;100.00;101140.03;4996436;28;20029;-73
2022/12/20 07:27:24;;;;;;;5.63;3.00;;;;;;;9.59;100.00;101145.22;4994363;28;20023;-72
2022/12/20 07:29:50;;;;;;;5.18;2.90;;;;;;;9.62;100.00;101142.59;4997803;28;20102;-73
2022/12/20 07:32:15;;;;;;;7.97;2.90;;;;;;;9.64;100.00;101135.63;5000156;28;20476;-72
2022/12/20 07:34:41;;;;;;;5.32;2.92;;;;;;;9.67;100.00;101135.59;4996705;28;20030;-72
2022/12/20 07:37:07;;;;;;;5.68;2.72;;;;;;;9.69;100.00;101131.28;4994701;28;20026;-72
2022/12/20 07:39:33;;;;;;;5.45;2.83;;;;;;;9.69;100.00;101139.88;4993909;28;20511;-72
2022/12/20 07:41:58;;;;;;;4.78;2.90;;;;;;;9.74;100.00;101150.16;4999467;28;20109;-72
2022/12/20 07:44:24;;;;;;;6.85;2.88;;;;;;;9.74;100.00;101150.16;4996391;28;20066;-72
2022/12/20 07:46:49;;;;;;;5.93;3.05;;;;;;;9.77;100.00;101147.50;4997312;28;20033;-72
2022/12/20 07:49:15;;;;;;;3.83;2.60;;;;;;;9.78;100.00;101144.06;4996499;28;20097;-73
2022/12/20 07:51:44;;;;;;;4.18;2.58;;;;;;;9.78;100.00;101142.31;4996346;28;20026;-73
2022/12/20 07:54:24;;;;;;;4.80;2.55;;;;;;;9.83;100.00;101150.00;4995650;28;20444;-72
2022/12/20 07:56:53;;;;;;;7.18;2.72;;;;;;;9.85;100.00;101156.03;4993652;28;20030;-73
2022/12/20 07:59:26;;;;;;;6.15;2.97;;;;;;;9.86;100.00;101165.50;4995071;28;20032;-73
2022/12/20 08:01:51;;;;;;;4.78;2.80;;;;;;;9.89;100.00;101173.25;4996272;28;20084;-73
2022/12/20 08:04:22;;;;;;;6.32;2.58;;;;;;;9.91;100.00;101167.13;4995919;28;20022;-73
2022/12/20 08:06:49;;;;;;;4.70;2.72;;;;;;;9.94;100.00;101178.34;4995451;28;20032;-72
2022/12/20 08:09:15;;;;;;;4.60;2.65;;;;;;;9.95;100.00;101174.88;4994948;28;20592;-76
2022/12/20 08:11:43;;;;;;;5.63;2.40;;;;;;;9.94;100.00;101171.44;4995808;28;20070;-76
2022/12/20 08:14:10;;;;;;;6.15;2.90;;;;;;;9.89;100.00;101173.25;4994578;28;20030;-77
2022/12/20 08:16:35;;;;;;;5.85;3.03;;;;;;;9.86;100.00;101173.28;4982085;28;20084;-77
2022/12/20 08:19:01;;;;;;;5.43;3.10;;;;;;;9.82;100.00;101161.28;4994883;28;20069;-77
2022/12/20 08:21:26;;;;;;;4.75;2.80;;;;;;;9.78;100.00;101172.53;4990490;28;20027;-77
2022/12/20 08:23:51;;;;;;;6.50;3.25;;;;;;;9.74;100.00;101165.69;4988454;28;20057;-77
2022/12/20 08:26:17;;;;;;;5.47;2.92;;;;;;;9.69;100.00;101159.75;4976206;28;20026;-78
2022/12/20 08:28:43;;;;;;;6.93;3.22;;;;;;;9.64;100.00;101162.38;4986317;28;20035;-78
2022/12/20 08:31:11;;;;;;;5.07;3.03;;;;;;;9.62;100.00;101166.72;4979897;28;20469;-78
2022/12/20 08:33:37;;;;;;;7.57;3.00;;;;;;;9.60;100.00;101159.88;4993695;28;20040;-76
2022/12/20 08:36:06;;;;;;;5.82;3.13;;;;;;;9.60;100.00;101159.88;4992881;28;20110;-75
2022/12/20 08:38:32;;;;;;;4.95;2.75;;;;;;;9.60;100.00;101172.81;4992025;28;20105;-74
2022/12/20 08:41:02;;;;;;;5.70;2.83;;;;;;;9.54;100.00;101160.81;4990973;28;20125;-85
2022/12/20 08:43:27;;;;;;;7.20;3.13;;;;;;;9.50;100.00;101160.00;4992318;28;20617;-83
2022/12/20 08:45:54;;;;;;;7.50;3.20;;;;;;;9.49;100.00;101165.19;4991572;28;20058;-83
2022/12/20 08:48:20;;;;;;;4.30;2.78;;;;;;;9.48;100.00;101168.69;4993553;28;20097;-83
2022/12/20 08:50:45;;;;;;;7.15;3.03;;;;;;;9.49;100.00;101167.78;4992074;28;20033;-67
2022/12/20 08:53:11;;;;;;;7.03;3.00;;;;;;;9.48;100.00;101160.91;4998885;28;20025;-67
2022/12/20 08:55:36;;;;;;;7.00;3.05;;;;;;;9.47;100.00;101157.47;4991366;28;20121;-68
2022/12/20 08:58:01;;;;;;;6.20;3.00;;;;;;;9.46;100.00;101153.16;4993715;28;20030;-67
2022/12/20 09:00:27;;;;;;;5.28;2.85;;;;;;;9.46;100.00;101139.38;4999292;28;20026;-69
2022/12/20 09:02:53;;;;;;;5.63;2.78;;;;;;;9.41;100.00;101147.22;4995533;28;20070;-69
2022/12/20 09:05:19;;;;;;;9.15;3.25;;;;;;;9.37;100.00;101147.25;4993735;28;20077;-69
2022/12/20 09:07:44;;;;;;;8.15;3.20;;;;;;;9.33;100.00;101149.03;4992426;28;20072;-69
2022/12/20 09:10:10;;;;;;;6.97;3.30;;;;;;;9.29;100.00;101157.69;4988784;28;20089;-68
2022/12/20 09:12:36;;;;;;;8.30;3.10;;;;;;;9.26;100.00;101149.13;4991826;28;20030;-69
2022/12/20 09:15:02;;;;;;;7.18;3.33;;;;;;;9.21;100.00;101141.41;4992436;28;20045;-68
2022/12/20 09:17:28;;;;;;;6.00;3.17;;;;;;;9.21;100.00;101143.19;4992991;28;20031;-68
2022/12/20 09:19:54;;;;;;;7.25;3.22;;;;;;;9.19;100.00;101144.91;4996071;28;20061;-69
2022/12/20 09:22:19;;;;;;;7.05;3.25;;;;;;;9.21;100.00;101136.25;4991908;28;20065;-69
2022/12/20 09:24:45;;;;;;;7.50;3.17;;;;;;;9.23;100.00;101131.91;4984625;28;20062;-69
2022/12/20 09:27:10;;;;;;;7.30;3.53;;;;;;;9.26;100.00;101138.78;4991450;28;20469;-69
2022/12/20 09:29:36;;;;;;;7.82;3.47;;;;;;;9.28;100.00;101140.47;4993252;28;20030;-69
2022/12/20 09:32:01;;;;;;;8.93;3.30;;;;;;;9.31;100.00;101145.59;4990902;28;20038;-69
2022/12/20 09:34:27;;;;;;;9.50;3.53;;;;;;;9.34;100.00;101132.66;4997546;28;20477;-68
2022/12/20 09:36:52;;;;;;;7.50;3.47;;;;;;;9.38;100.00;101136.88;4992542;28;20027;-69
2022/12/20 09:39:18;;;;;;;7.65;3.33;;;;;;;9.45;100.00;101143.69;4999842;28;20473;-69
2022/12/20 09:41:43;;;;;;;7.18;3.40;;;;;;;9.52;100.00;101134.09;4992488;28;20030;-69
2022/12/20 09:44:28;;;;;;;5.47;3.35;;;;;;;9.61;100.00;101138.28;4993324;28;20030;-69
2022/12/20 09:46:58;;;;;;;5.75;3.22;;;;;;;9.65;100.00;101140.81;4990958;28;20519;-69
2022/12/20 09:49:30;;;;;;;6.40;3.15;;;;;;;9.67;100.00;101141.66;4992969;28;20033;-69
2022/12/20 09:52:23;;;;;;;6.72;3.60;;;;;;;9.69;100.00;101136.44;4996577;28;20034;-69
2022/12/20 09:54:56;;;;;;;6.28;3.53;;;;;;;9.68;100.00;101134.75;4996286;28;20065;-69
2022/12/20 09:57:45;;;;;;;5.72;3.40;;;;;;;9.69;100.00;101139.03;4996177;28;20034;-69
2022/12/20 10:00:18;;;;;;;9.43;3.50;;;;;;;9.70;100.00;101143.31;4997471;28;20500;-69
2022/12/20 10:02:44;;;;;;;7.65;3.15;;;;;;;9.70;100.00;101140.72;4998889;28;20030;-66
2022/12/20 10:05:35;;;;;;;6.88;2.92;;;;;;;9.70;100.00;101144.16;4990824;28;20050;-66
2022/12/20 10:08:23;;;;;;;6.43;3.25;;;;;;;9.70;100.00;101127.78;4999298;28;20175;-66
2022/12/20 10:11:29;;;;;;;6.93;3.80;;;;;;;9.67;100.00;101133.03;4994030;28;20058;-66
2022/12/20 10:14:28;;;;;;;8.35;3.35;;;;;;;9.66;100.00;101123.53;4981200;28;20043;-66
2022/12/20 10:17:00;;;;;;;7.18;3.55;;;;;;;9.65;100.00;101124.41;4991475;28;20417;-66
2022/12/20 10:19:51;;;;;;;4.38;3.05;;;;;;;9.66;100.00;101116.63;4991128;28;20046;-66
2022/12/20 10:22:27;;;;;;;8.85;2.95;;;;;;;9.69;100.00;101124.34;4987100;28;20038;-66
2022/12/20 10:25:15;;;;;;;5.00;3.30;;;;;;;9.75;100.00;101110.47;4995204;28;20030;-65
2022/12/20 10:27:43;;;;;;;7.88;3.40;;;;;;;9.84;100.00;101108.56;4995740;28;20040;-66
2022/12/20 10:30:20;;;;;;;6.57;3.30;;;;;;;9.91;100.00;101111.91;4992014;28;20486;-67
2022/12/20 10:32:48;;;;;;;5.97;3.25;;;;;;;9.97;100.00;101111.81;5000582;28;20485;-67
2022/12/20 10:35:13;;;;;;;6.20;3.15;;;;;;;10.03;100.00;101111.69;4981937;28;20154;-67
2022/12/20 10:38:16;;;;;;;6.97;3.10;;;;;;;10.10;100.00;101110.72;4995990;28;20073;-67
2022/12/20 10:40:57;;;;;;;6.97;3.40;;;;;;;10.20;100.00;101103.66;4978288;28;20046;-66
2022/12/20 10:43:24;;;;;;;4.30;3.10;;;;;;;10.25;100.00;101104.44;4995008;28;20026;-67
2022/12/20 10:46:07;;;;;;;5.88;3.22;;;;;;;10.28;100.00;101107.00;4996233;28;20022;-66
2022/12/20 10:48:34;;;;;;;8.18;3.53;;;;;;;10.24;100.00;101110.50;4993554;28;20033;-71
2022/12/20 10:51:21;;;;;;;6.22;2.72;;;;;;;10.21;100.00;101107.97;4992604;28;20030;-72
2022/12/20 10:53:52;;;;;;;6.30;3.22;;;;;;;10.15;100.00;101095.97;4973806;28;20026;-71
2022/12/20 10:56:28;;;;;;;6.75;3.33;;;;;;;10.12;100.00;101108.09;4986974;28;20042;-71
2022/12/20 10:59:11;;;;;;;5.53;3.40;;;;;;;10.10;100.00;101097.75;4992709;28;20034;-72
2022/12/20 11:01:43;;;;;;;5.18;3.28;;;;;;;10.07;100.00;101110.78;4996423;28;20404;-71
2022/12/20 11:04:29;;;;;;;6.50;3.20;;;;;;;10.05;100.00;101101.31;5001713;28;20453;-71
2022/12/20 11:06:55;;;;;;;6.75;3.38;;;;;;;10.02;100.00;101093.63;4993226;28;20452;-71
2022/12/20 11:09:32;;;;;;;7.75;3.13;;;;;;;9.99;100.00;101096.25;4995259;28;20045;-70
2022/12/20 11:12:04;;;;;;;8.20;3.40;;;;;;;9.93;100.00;101097.22;4996618;28;20030;-71
2022/12/20 11:14:34;;;;;;;7.82;3.75;;;;;;;9.90;100.00;101097.25;4994420;28;20030;-70
2022/12/20 11:17:06;;;;;;;6.65;3.40;;;;;;;9.86;100.00;101098.19;4988995;28;20041;-71
2022/12/20 11:19:41;;;;;;;7.57;3.67;;;;;;;9.82;100.00;101093.97;5000765;28;20038;-67
2022/12/20 11:22:26;;;;;;;7.93;3.92;;;;;;;9.81;100.00;101087.06;4994986;28;20516;-66
2022/12/20 11:25:19;;;;;;;5.72;3.75;;;;;;;9.80;100.00;101091.38;4994055;28;20564;-67
2022/12/20 11:28:21;;;;;;;6.38;3.67;;;;;;;9.82;100.00;101083.59;4995103;28;20042;-67
2022/12/20 11:30:56;;;;;;;7.60;3.75;;;;;;;9.80;100.00;101091.38;4996694;28;20026;-66
2022/12/20 11:33:30;;;;;;;;;;;;;;;9.80;100.00;101091.38;4996136;28;20041;-66
2022/12/20 11:36:32;;;;;;;7.10;3.85;;;;;;;9.82;100.00;101084.47;4995627;28;20505;-67
2022/12/20 11:39:09;;;;;;;7.43;4.05;;;;;;;9.86;100.00;101080.06;4993540;28;20030;-66
2022/12/20 11:41:54;;;;;;;8.77;4.18;;;;;;;9.87;100.00;101072.28;4983427;28;20062;-67